createdAt,value
2022-10-05T00:01:55.246Z,81.40
2022-10-05T00:04:24.294Z,81.30
2022-10-05T00:07:08.559Z,81.30
2022-10-05T00:09:35.489Z,81.30
2022-10-05T00:12:20.669Z,81.20
2022-10-05T00:14:49.575Z,81.20
2022-10-05T00:17:24.932Z,81.30
2022-10-05T00:19:54.096Z,81.50
2022-10-05T00:22:32.393Z,81.40
2022-10-05T00:25:03.197Z,81.30
2022-10-05T00:27:36.684Z,81.40
2022-10-05T00:30:16.079Z,81.20
2022-10-05T00:32:43.176Z,81.20
2022-10-05T00:35:11.368Z,81.10
2022-10-05T00:37:38.433Z,81.30
2022-10-05T00:40:29.460Z,81.40
2022-10-05T00:43:11.194Z,81.10
2022-10-05T00:45:51.397Z,81.30
2022-10-05T00:48:41.449Z,81.20
2022-10-05T00:51:29.930Z,81.00
2022-10-05T00:54:02.743Z,81.10
2022-10-05T00:56:48.568Z,81.00
2022-10-05T00:59:35.314Z,81.10
2022-10-05T01:02:15.226Z,81.00
2022-10-05T01:04:41.868Z,80.90
2022-10-05T01:07:08.624Z,80.90
2022-10-05T01:09:44.599Z,81.00
2022-10-05T01:12:33.320Z,81.00
2022-10-05T01:15:14.070Z,80.80
2022-10-05T01:17:49.966Z,80.80
2022-10-05T01:20:25.637Z,80.80
2022-10-05T01:23:10.201Z,80.60
2022-10-05T01:26:07.688Z,80.80
2022-10-05T01:29:19.968Z,80.70
2022-10-05T01:32:08.368Z,80.80
2022-10-05T01:35:07.444Z,80.90
2022-10-05T01:37:58.699Z,80.60
2022-10-05T01:40:39.142Z,80.40
2022-10-05T01:43:24.937Z,80.40
2022-10-05T01:46:19.707Z,80.50
2022-10-05T01:49:12.027Z,80.40
2022-10-05T01:51:57.417Z,80.40
2022-10-05T01:55:17.758Z,80.70
2022-10-05T01:57:56.832Z,80.50
2022-10-05T02:00:23.604Z,80.50
2022-10-05T02:03:11.702Z,80.70
2022-10-05T02:05:43.467Z,80.50
2022-10-05T02:08:25.655Z,80.60
2022-10-05T02:11:04.438Z,80.60
2022-10-05T02:13:35.209Z,80.60
2022-10-05T02:16:07.186Z,80.50
2022-10-05T02:18:45.565Z,80.60
2022-10-05T02:21:15.688Z,80.50
2022-10-05T02:23:45.611Z,80.70
2022-10-05T02:26:13.582Z,80.80
2022-10-05T02:28:49.289Z,80.70
2022-10-05T02:31:18.941Z,80.80
2022-10-05T02:33:47.838Z,80.60
2022-10-05T02:36:19.177Z,80.80
2022-10-05T02:39:14.110Z,80.80
2022-10-05T02:41:55.951Z,80.60
2022-10-05T02:45:04.022Z,80.50
2022-10-05T02:47:36.713Z,80.60
2022-10-05T02:50:08.320Z,80.50
2022-10-05T02:53:12.399Z,80.70
2022-10-05T02:55:54.159Z,80.40
2022-10-05T02:58:27.136Z,80.40
2022-10-05T03:01:22.853Z,80.60
2022-10-05T03:04:20.281Z,80.20
2022-10-05T03:07:02.408Z,80.40
2022-10-05T03:09:36.230Z,80.40
2022-10-05T03:12:02.875Z,80.10
2022-10-05T03:14:49.276Z,80.40
2022-10-05T03:17:23.861Z,80.30
2022-10-05T03:20:11.846Z,80.30
2022-10-05T03:23:00.782Z,80.10
2022-10-05T03:25:42.291Z,80.10
2022-10-05T03:28:15.261Z,80.00
2022-10-05T03:31:05.323Z,80.00
2022-10-05T03:33:57.160Z,80.00
2022-10-05T03:36:36.746Z,80.00
2022-10-05T03:39:24.668Z,80.00
2022-10-05T03:41:55.235Z,80.10
2022-10-05T03:44:21.924Z,80.30
2022-10-05T03:46:51.314Z,80.20
2022-10-05T03:49:47.929Z,80.10
2022-10-05T03:52:14.568Z,80.00
2022-10-05T03:54:48.960Z,80.00
2022-10-05T03:57:27.692Z,80.00
2022-10-05T04:00:28.142Z,79.90
2022-10-05T04:03:06.934Z,80.60
2022-10-05T04:05:50.474Z,80.00
2022-10-05T04:08:27.802Z,80.00
2022-10-05T04:11:01.671Z,80.10
2022-10-05T04:13:36.680Z,79.60
2022-10-05T04:16:15.672Z,79.20
2022-10-05T04:18:57.747Z,79.00
2022-10-05T04:21:30.109Z,78.40
2022-10-05T04:24:11.391Z,78.10
2022-10-05T04:26:48.280Z,78.10
2022-10-05T04:29:16.240Z,78.00
2022-10-05T04:32:20.096Z,78.00
2022-10-05T04:35:20.078Z,78.20
2022-10-05T04:38:14.661Z,78.60
2022-10-05T04:41:18.977Z,78.70
2022-10-05T04:44:06.821Z,78.50
2022-10-05T04:47:11.450Z,78.60
2022-10-05T04:50:00.167Z,79.10
2022-10-05T04:52:50.458Z,78.60
2022-10-05T04:55:45.215Z,78.70
2022-10-05T04:58:30.675Z,79.30
2022-10-05T05:01:32.504Z,79.30
2022-10-05T05:04:24.349Z,79.10
2022-10-05T05:07:21.190Z,79.40
2022-10-05T05:10:23.690Z,79.60
2022-10-05T05:12:59.710Z,79.80
2022-10-05T05:15:38.892Z,79.70
2022-10-05T05:18:36.446Z,79.60
2022-10-05T05:21:06.296Z,80.10
2022-10-05T05:23:40.737Z,79.90
2022-10-05T05:26:49.716Z,79.60
2022-10-05T05:29:41.166Z,80.30
2022-10-05T05:32:26.301Z,80.20
2022-10-05T05:35:08.828Z,79.80
2022-10-05T05:37:55.324Z,79.30
2022-10-05T05:40:33.914Z,78.90
2022-10-05T05:43:16.928Z,79.00
2022-10-05T05:46:08.977Z,78.80
2022-10-05T05:48:39.772Z,78.70
2022-10-05T05:51:35.191Z,79.00
2022-10-05T05:54:37.115Z,78.80
2022-10-05T05:57:22.718Z,78.50
2022-10-05T06:00:07.454Z,78.30
2022-10-05T06:02:55.583Z,78.10
2022-10-05T06:05:22.476Z,78.30
2022-10-05T06:07:52.599Z,77.70
2022-10-05T06:10:26.385Z,77.00
2022-10-05T06:12:59.638Z,77.10
2022-10-05T06:15:31.147Z,76.70
2022-10-05T06:18:02.938Z,76.90
2022-10-05T06:20:49.041Z,77.10
2022-10-05T06:23:39.830Z,77.30
2022-10-05T06:26:34.932Z,77.20
2022-10-05T06:29:07.773Z,76.60
2022-10-05T06:32:10.123Z,76.60
2022-10-05T06:34:45.703Z,76.20
2022-10-05T06:37:29.702Z,75.90
2022-10-05T06:40:15.067Z,75.70
2022-10-05T06:43:13.985Z,75.80
2022-10-05T06:45:53.110Z,75.90
2022-10-05T06:48:34.329Z,75.90
2022-10-05T06:51:11.369Z,76.10
2022-10-05T06:54:05.561Z,76.20
2022-10-05T06:56:48.111Z,76.20
2022-10-05T06:59:34.550Z,76.40
2022-10-05T07:02:19.351Z,76.60
2022-10-05T07:04:53.357Z,76.10
2022-10-05T07:07:34.785Z,75.90
2022-10-05T07:10:20.449Z,75.70
2022-10-05T07:12:57.405Z,75.60
2022-10-05T07:15:44.869Z,75.40
2022-10-05T07:18:35.632Z,75.20
2022-10-05T07:21:23.832Z,75.20
2022-10-05T07:24:20.409Z,74.80
2022-10-05T07:26:51.000Z,74.50
2022-10-05T07:29:33.488Z,74.50
2022-10-05T07:32:24.661Z,74.10
2022-10-05T07:34:59.971Z,74.30
2022-10-05T07:37:57.813Z,74.10
2022-10-05T07:40:45.251Z,73.80
2022-10-05T07:43:14.861Z,73.80
2022-10-05T07:46:08.455Z,73.70
2022-10-05T07:48:58.464Z,73.40
2022-10-05T07:51:37.420Z,73.30
2022-10-05T07:54:38.961Z,73.10
2022-10-05T07:57:34.685Z,73.00
2022-10-05T08:00:03.889Z,73.00
2022-10-05T08:02:46.522Z,72.70
2022-10-05T08:05:26.083Z,72.70
2022-10-05T08:08:03.570Z,72.80
2022-10-05T08:10:40.319Z,72.90
2022-10-05T08:13:21.993Z,73.30
2022-10-05T08:15:55.888Z,72.90
2022-10-05T08:18:39.929Z,72.90
2022-10-05T08:21:11.926Z,72.80
2022-10-05T08:23:51.698Z,72.50
2022-10-05T08:26:38.733Z,72.50
2022-10-05T08:29:35.337Z,72.60
2022-10-05T08:32:03.958Z,72.40
2022-10-05T08:35:01.894Z,72.50
2022-10-05T08:37:33.493Z,72.30
2022-10-05T08:40:09.090Z,72.50
2022-10-05T08:42:56.989Z,72.50
2022-10-05T08:46:02.361Z,72.30
2022-10-05T08:48:52.033Z,72.20
2022-10-05T08:51:33.163Z,72.40
2022-10-05T08:54:08.445Z,72.20
2022-10-05T08:56:52.739Z,72.30
2022-10-05T09:00:04.166Z,72.40
2022-10-05T09:03:08.714Z,72.30
2022-10-05T09:05:58.397Z,72.30
2022-10-05T09:08:36.841Z,72.20
2022-10-05T09:11:18.596Z,72.00
2022-10-05T09:14:07.328Z,72.10
2022-10-05T09:16:58.021Z,72.00
2022-10-05T09:19:43.575Z,72.20
2022-10-05T09:22:15.092Z,72.00
2022-10-05T09:24:54.057Z,72.10
2022-10-05T09:27:36.577Z,72.10
2022-10-05T09:30:15.559Z,72.10
2022-10-05T09:32:51.668Z,72.20
2022-10-05T09:35:45.569Z,71.90
2022-10-05T09:38:43.174Z,72.00
2022-10-05T09:41:34.891Z,71.10
2022-10-05T09:44:07.859Z,69.00
2022-10-05T09:46:53.427Z,68.50
2022-10-05T09:49:51.995Z,67.90
2022-10-05T09:52:47.108Z,68.10
2022-10-05T09:55:28.967Z,68.50
2022-10-05T09:58:04.347Z,66.80
2022-10-05T10:00:40.071Z,66.20
2022-10-05T10:03:06.770Z,64.50
2022-10-05T10:06:06.368Z,63.10
2022-10-05T10:08:57.940Z,61.40
2022-10-05T10:11:43.327Z,60.00
2022-10-05T10:14:48.232Z,59.80
2022-10-05T10:17:39.306Z,59.40
2022-10-05T10:20:22.512Z,59.40
2022-10-05T10:23:12.939Z,59.20
2022-10-05T10:26:17.506Z,59.50
2022-10-05T10:29:02.868Z,60.90
2022-10-05T10:31:58.671Z,60.90
2022-10-05T10:34:56.349Z,61.30
2022-10-05T10:37:39.450Z,61.50
2022-10-05T10:40:34.892Z,61.70
2022-10-05T10:43:26.492Z,61.70
2022-10-05T10:46:20.758Z,61.80
2022-10-05T10:49:15.826Z,60.50
2022-10-05T10:51:50.479Z,60.00
2022-10-05T10:54:39.779Z,59.40
2022-10-05T10:57:12.103Z,59.00
2022-10-05T11:00:15.666Z,58.90
2022-10-05T11:02:54.926Z,59.10
2022-10-05T11:05:50.640Z,58.20
2022-10-05T11:08:53.653Z,57.90
2022-10-05T11:11:51.957Z,58.00
2022-10-05T11:14:58.569Z,57.90
2022-10-05T11:17:58.118Z,58.80
2022-10-05T11:20:46.415Z,58.20
2022-10-05T11:23:21.923Z,58.60
2022-10-05T11:26:42.367Z,58.50
2022-10-05T11:29:23.686Z,58.50
2022-10-05T11:32:11.508Z,58.60
2022-10-05T11:35:03.827Z,58.80
2022-10-05T11:38:03.681Z,59.10
2022-10-05T11:40:43.893Z,59.20
2022-10-05T11:43:48.665Z,59.00
2022-10-05T11:46:59.963Z,57.90
2022-10-05T11:49:57.412Z,57.20
2022-10-05T11:52:34.128Z,57.70
2022-10-05T11:55:28.940Z,57.30
2022-10-05T11:57:59.394Z,57.30
2022-10-05T12:00:42.519Z,57.20
2022-10-05T12:03:12.431Z,57.40
2022-10-05T12:06:03.486Z,57.80
2022-10-05T12:08:39.095Z,58.30
2022-10-05T12:11:28.775Z,58.90
2022-10-05T12:14:08.081Z,59.30
2022-10-05T12:16:53.656Z,59.50
2022-10-05T12:19:32.365Z,59.50
2022-10-05T12:22:10.735Z,59.50
2022-10-05T12:24:37.384Z,59.50
2022-10-05T12:27:15.777Z,59.60
2022-10-05T12:29:52.482Z,59.50
2022-10-05T12:32:26.834Z,59.60
2022-10-05T12:35:11.632Z,59.60
2022-10-05T12:37:58.508Z,59.70
2022-10-05T12:40:59.085Z,59.90
2022-10-05T12:43:40.508Z,60.90
2022-10-05T12:46:28.374Z,62.60
2022-10-05T12:49:28.590Z,62.90
2022-10-05T12:52:05.425Z,63.30
2022-10-05T12:54:50.235Z,63.50
2022-10-05T12:57:35.500Z,63.80
2022-10-05T13:00:22.867Z,63.80
2022-10-05T13:03:18.006Z,62.40
2022-10-05T13:06:17.028Z,62.60
2022-10-05T13:08:53.774Z,61.70
2022-10-05T13:11:41.485Z,61.10
2022-10-05T13:14:13.726Z,60.30
2022-10-05T13:16:54.752Z,59.50
2022-10-05T13:19:30.648Z,59.40
2022-10-05T13:22:09.042Z,59.30
2022-10-05T13:24:42.161Z,58.80
2022-10-05T13:27:18.249Z,58.90
2022-10-05T13:29:54.415Z,58.60
2022-10-05T13:32:27.537Z,58.10
2022-10-05T13:35:16.303Z,58.00
2022-10-05T13:37:51.638Z,58.40
2022-10-05T13:40:34.021Z,58.50
2022-10-05T13:43:00.786Z,58.60
2022-10-05T13:45:38.788Z,58.80
2022-10-05T13:48:17.762Z,58.70
2022-10-05T13:51:05.783Z,58.50
2022-10-05T13:54:04.790Z,58.40
2022-10-05T13:56:36.902Z,58.60
2022-10-05T13:59:12.264Z,59.00
2022-10-05T14:01:52.903Z,59.10
2022-10-05T14:04:24.654Z,58.90
2022-10-05T14:06:54.242Z,59.10
2022-10-05T14:09:22.018Z,59.00
2022-10-05T14:12:11.887Z,59.20
2022-10-05T14:14:53.704Z,59.20
2022-10-05T14:17:43.800Z,59.30
2022-10-05T14:20:25.960Z,59.10
2022-10-05T14:22:57.553Z,59.20
2022-10-05T14:25:24.798Z,59.20
2022-10-05T14:28:04.383Z,59.30
2022-10-05T14:30:32.753Z,59.60
2022-10-05T14:33:05.615Z,59.80
2022-10-05T14:35:46.617Z,59.90
2022-10-05T14:38:28.662Z,60.10
2022-10-05T14:41:19.008Z,60.30
2022-10-05T14:43:50.360Z,60.80
2022-10-05T14:46:18.137Z,61.00
2022-10-05T14:48:47.754Z,61.40
2022-10-05T14:51:28.226Z,62.50
2022-10-05T14:54:17.364Z,62.10
2022-10-05T14:57:16.933Z,62.20
2022-10-05T15:00:02.698Z,62.40
2022-10-05T15:03:05.441Z,62.80
2022-10-05T15:05:32.791Z,63.20
2022-10-05T15:08:27.351Z,63.60
2022-10-05T15:11:00.652Z,64.20
2022-10-05T15:13:39.007Z,65.20
2022-10-05T15:16:24.790Z,66.00
2022-10-05T15:19:17.823Z,66.90
2022-10-05T15:21:55.977Z,67.50
2022-10-05T15:24:26.607Z,71.80
2022-10-05T15:27:04.053Z,74.70
2022-10-05T15:30:01.133Z,73.70
2022-10-05T15:32:41.659Z,71.60
2022-10-05T15:35:26.030Z,71.10
2022-10-05T15:38:04.102Z,70.90
2022-10-05T15:40:39.759Z,72.40
2022-10-05T15:43:16.289Z,71.20
2022-10-05T15:45:53.846Z,72.00
2022-10-05T15:48:42.340Z,71.30
2022-10-05T15:51:37.019Z,71.30
2022-10-05T15:54:25.847Z,71.60
2022-10-05T15:57:10.633Z,71.40
2022-10-05T15:59:54.859Z,71.80
2022-10-05T16:02:41.160Z,71.90
2022-10-05T16:05:47.861Z,71.70
2022-10-05T16:08:56.396Z,72.10
2022-10-05T16:11:50.185Z,72.30
2022-10-05T16:14:33.029Z,72.50
2022-10-05T16:16:59.744Z,72.50
2022-10-05T16:19:38.707Z,72.80
2022-10-05T16:22:27.802Z,72.90
2022-10-05T16:25:10.967Z,73.00
2022-10-05T16:27:49.586Z,72.80
2022-10-05T16:30:20.835Z,73.00
2022-10-05T16:33:03.179Z,72.80
2022-10-05T16:35:44.322Z,73.20
2022-10-05T16:38:48.131Z,73.30
2022-10-05T16:41:17.512Z,73.10
2022-10-05T16:44:12.172Z,73.30
2022-10-05T16:46:51.030Z,73.30
2022-10-05T16:49:43.365Z,73.50
2022-10-05T16:52:16.154Z,73.90
2022-10-05T16:54:53.860Z,73.80
2022-10-05T16:57:25.469Z,73.70
2022-10-05T17:00:15.929Z,73.50
2022-10-05T17:03:15.679Z,73.70
2022-10-05T17:06:13.286Z,73.60
2022-10-05T17:09:18.338Z,74.00
2022-10-05T17:11:48.304Z,74.00
2022-10-05T17:14:20.882Z,74.00
2022-10-05T17:16:54.408Z,74.10
2022-10-05T17:19:46.744Z,74.30
2022-10-05T17:22:47.358Z,74.60
2022-10-05T17:25:24.732Z,74.20
2022-10-05T17:27:54.108Z,74.60
2022-10-05T17:30:36.846Z,74.50
2022-10-05T17:33:14.100Z,74.40
2022-10-05T17:36:08.479Z,74.50
2022-10-05T17:38:35.200Z,74.20
2022-10-05T17:41:26.380Z,74.30
2022-10-05T17:44:16.355Z,74.40
2022-10-05T17:46:53.328Z,74.50
2022-10-05T17:50:18.145Z,74.40
2022-10-05T17:53:24.079Z,74.60
2022-10-05T17:56:03.656Z,74.70
2022-10-05T17:58:30.307Z,74.50
2022-10-05T18:00:57.130Z,74.60
2022-10-05T18:03:42.907Z,74.90
2022-10-05T18:06:31.700Z,74.50
2022-10-05T18:09:28.742Z,74.50
2022-10-05T18:12:17.825Z,74.40
2022-10-05T18:15:22.616Z,74.50
2022-10-05T18:17:51.794Z,74.40
2022-10-05T18:20:24.408Z,74.40
2022-10-05T18:23:11.857Z,74.70
2022-10-05T18:26:07.467Z,74.80
2022-10-05T18:28:55.560Z,74.60
2022-10-05T18:31:51.295Z,74.90
2022-10-05T18:34:28.373Z,74.50
2022-10-05T18:36:57.897Z,74.90
2022-10-05T18:39:41.585Z,74.60
2022-10-05T18:42:23.573Z,74.60
2022-10-05T18:44:57.194Z,74.80
2022-10-05T18:47:42.417Z,74.70
2022-10-05T18:50:30.984Z,74.70
2022-10-05T18:53:22.905Z,74.70
2022-10-05T18:56:15.180Z,74.60
2022-10-05T18:59:15.008Z,78.50
2022-10-05T19:01:47.956Z,79.30
2022-10-05T19:04:47.139Z,80.40
2022-10-05T19:07:46.833Z,78.90
2022-10-05T19:10:28.192Z,78.80
2022-10-05T19:13:22.574Z,78.80
2022-10-05T19:16:12.339Z,79.00
2022-10-05T19:19:07.260Z,79.20
2022-10-05T19:22:12.082Z,78.60
2022-10-05T19:24:42.540Z,78.50
2022-10-05T19:27:38.874Z,78.60
2022-10-05T19:30:41.977Z,78.30
2022-10-05T19:33:26.957Z,78.30
2022-10-05T19:36:00.247Z,78.30
2022-10-05T19:38:58.423Z,78.40
2022-10-05T19:41:47.036Z,78.20
2022-10-05T19:44:13.716Z,77.80
2022-10-05T19:47:12.568Z,77.60
2022-10-05T19:49:57.012Z,77.70
2022-10-05T19:52:30.341Z,77.60
2022-10-05T19:55:24.200Z,77.90
2022-10-05T19:57:53.125Z,77.50
2022-10-05T20:00:30.405Z,77.80
2022-10-05T20:03:18.160Z,78.20
2022-10-05T20:05:45.570Z,78.60
2022-10-05T20:08:17.946Z,79.20
2022-10-05T20:11:05.014Z,78.60
2022-10-05T20:13:35.078Z,78.10
2022-10-05T20:16:37.059Z,78.30
2022-10-05T20:19:43.099Z,78.00
2022-10-05T20:22:30.654Z,77.90
2022-10-05T20:25:01.089Z,77.40
2022-10-05T20:27:44.857Z,77.30
2022-10-05T20:30:15.316Z,77.70
2022-10-05T20:32:45.149Z,77.40
2022-10-05T20:35:12.071Z,77.20
2022-10-05T20:37:38.931Z,77.00
2022-10-05T20:40:06.434Z,77.00
2022-10-05T20:42:33.100Z,77.30
2022-10-05T20:45:01.770Z,77.50
2022-10-05T20:47:28.528Z,77.40
2022-10-05T20:49:55.656Z,77.30
2022-10-05T20:52:23.241Z,77.30
2022-10-05T20:54:54.080Z,77.20
2022-10-05T20:57:21.272Z,77.00
2022-10-05T20:59:48.063Z,77.00
2022-10-05T21:02:14.777Z,77.10
2022-10-05T21:04:46.708Z,76.90
2022-10-05T21:07:19.894Z,76.70
2022-10-05T21:09:46.963Z,76.90
2022-10-05T21:12:14.470Z,77.00
2022-10-05T21:14:41.177Z,76.60
2022-10-05T21:17:08.281Z,76.90
2022-10-05T21:19:39.350Z,76.90
2022-10-05T21:22:08.265Z,77.00
2022-10-05T21:24:39.757Z,77.20
2022-10-05T21:27:07.432Z,77.30
2022-10-05T21:29:35.730Z,77.20
2022-10-05T21:32:02.967Z,77.50
2022-10-05T21:34:30.279Z,77.30
2022-10-05T21:36:56.998Z,77.60
2022-10-05T21:39:24.801Z,77.70
2022-10-05T21:41:51.549Z,77.70
2022-10-05T21:44:20.691Z,77.60
2022-10-05T21:46:48.390Z,77.50
2022-10-05T21:49:18.852Z,77.60
2022-10-05T21:51:47.247Z,77.50
2022-10-05T21:54:16.997Z,77.30
2022-10-05T21:56:47.935Z,77.40
2022-10-05T21:59:21.282Z,78.10
2022-10-05T22:01:47.998Z,77.30
2022-10-05T22:04:15.066Z,77.50
2022-10-05T22:06:42.210Z,77.50
2022-10-05T22:09:09.357Z,77.20
2022-10-05T22:11:36.241Z,77.30
2022-10-05T22:14:03.210Z,77.20
2022-10-05T22:16:33.024Z,77.20
2022-10-05T22:19:04.034Z,77.50
2022-10-05T22:21:32.804Z,77.50
2022-10-05T22:24:02.468Z,77.40
2022-10-05T22:26:29.666Z,77.50
2022-10-05T22:28:57.025Z,77.30
2022-10-05T22:31:23.838Z,77.30
2022-10-05T22:33:51.232Z,77.20
2022-10-05T22:36:18.149Z,77.20
2022-10-05T22:38:46.530Z,77.40
2022-10-05T22:41:14.067Z,77.40
2022-10-05T22:43:40.804Z,77.60
2022-10-05T22:46:09.468Z,77.70
2022-10-05T22:48:36.242Z,77.60
2022-10-05T22:51:03.474Z,77.70
2022-10-05T22:53:30.164Z,77.90
2022-10-05T22:55:57.113Z,77.70
2022-10-05T22:58:23.937Z,77.80
2022-10-05T23:00:58.849Z,77.60
2022-10-05T23:03:25.822Z,77.70
2022-10-05T23:06:00.927Z,77.80
2022-10-05T23:08:28.143Z,77.60
2022-10-05T23:10:59.548Z,77.60
2022-10-05T23:13:26.370Z,77.70
2022-10-05T23:15:53.072Z,77.50
2022-10-05T23:18:19.851Z,78.20
2022-10-05T23:20:55.933Z,77.50
2022-10-05T23:23:23.268Z,77.70
2022-10-05T23:25:50.537Z,77.60
2022-10-05T23:28:17.359Z,77.60
2022-10-05T23:30:44.695Z,77.50
2022-10-05T23:33:11.468Z,77.60
2022-10-05T23:35:38.130Z,77.60
2022-10-05T23:38:04.864Z,77.90
2022-10-05T23:40:31.583Z,77.80
2022-10-05T23:42:58.458Z,77.80
2022-10-05T23:45:25.371Z,77.80
2022-10-05T23:47:52.176Z,77.90
2022-10-05T23:50:21.009Z,77.80
2022-10-05T23:52:48.402Z,77.70
2022-10-05T23:55:15.215Z,77.80
2022-10-05T23:57:41.914Z,77.80
